Time;durP1;ratioP1;P1;durP2;ratioP2;P2;SDS_P1;SDS_P2;PMS_P1;PMS_P2;Temp;Humidity;BMP_temperature;BMP_pressure;BME280_temperature;BME280_humidity;BME280_pressure;Samples;Min_cycle;Max_cycle;Signal;HPM_P1;HPM_P2
2023/12/10 06:02:21;;;;;;;;;;;;;;;;;;5083190;23;19978;-45
2023/12/10 06:04:46;;;;;;;;;;;;;;;;;;4930225;29;19915;-45
2023/12/10 06:07:12;;;;;;;;;;;;;;;;;;4930551;29;19911;-44
2023/12/10 06:09:38;;;;;;;;;;;;;;;;;;4930140;29;19950;-44
2023/12/10 06:12:04;;;;;;;;;;;;;;;;;;4930639;29;19922;-44
2023/12/10 06:14:30;;;;;;;;;;;;;;;;;;4930200;29;19911;-43
2023/12/10 06:16:56;;;;;;;;;;;;;;;;;;4931081;29;19911;-44
2023/12/10 06:19:22;;;;;;;;;;;;;;;;;;4930179;29;20376;-42
2023/12/10 06:21:48;;;;;;;;;;;;;;;;;;4930095;29;19922;-44
2023/12/10 06:24:14;;;;;;;;;;;;;;;;;;4930069;29;19939;-43
2023/12/10 06:26:39;;;;;;;;;;;;;;;;;;4930360;29;20378;-43
2023/12/10 06:29:05;;;;;;;;;;;;;;;;;;4930282;29;19918;-44
2023/12/10 06:31:31;;;;;;;;;;;;;;;;;;4930584;29;19937;-44
2023/12/10 06:33:57;;;;;;;;;;;;;;;;;;4930429;29;19911;-43
2023/12/10 06:36:23;;;;;;;;;;;;;;;;;;4931747;29;19911;-43
2023/12/10 06:38:49;;;;;;;;;;;;;;;;;;4933894;29;19922;-44
2023/12/10 06:41:15;;;;;;;;;;;;;;;;;;4933837;29;19919;-45
2023/12/10 06:43:41;;;;;;;;;;;;;;;;;;4933688;29;19911;-41
2023/12/10 06:46:07;;;;;;;;;;;;;;;;;;4933607;29;19918;-41
2023/12/10 06:48:36;;;;;;;;;;;;;;;;;;4932734;29;20330;-41
2023/12/10 06:51:01;;;;;;;;;;;;;;;;;;4935257;29;19918;-42
2023/12/10 06:53:28;;;;;;;;;;;;;;;;;;4935737;29;19907;-41
2023/12/10 06:55:54;;;;;;;;;;;;;;;;;;4937149;29;19910;-41
2023/12/10 06:58:20;;;;;;;;;;;;;;;;;;4932363;29;20002;-41
2023/12/10 07:00:46;;;;;;;;;;;;;;;;;;4932956;29;19919;-42
2023/12/10 07:03:12;;;;;;;;;;;;;;;;;;4933704;29;19911;-43
2023/12/10 07:05:38;;;;;;;;;;;;;;;;;;4933482;29;20404;-42
2023/12/10 07:08:04;;;;;;;;;;;;;;;;;;4933172;29;20278;-41
2023/12/10 07:10:29;;;;;;;;;;;;;;;;;;4933091;29;19911;-41
2023/12/10 07:12:55;;;;;;;;;;;;;;;;;;4933904;29;19918;-42
2023/12/10 07:15:21;;;;;;;;;;;;;;;;;;4933122;29;19911;-41
2023/12/10 07:17:47;;;;;;;;;;;;;;;;;;4932721;29;20022;-41
2023/12/10 07:20:13;;;;;;;;;;;;;;;;;;4933269;29;19918;-42
2023/12/10 07:22:39;;;;;;;;;;;;;;;;;;4933032;29;20263;-41
2023/12/10 07:25:05;;;;;;;;;;;;;;;;;;4932842;29;19915;-41
2023/12/10 07:27:31;;;;;;;;;;;;;;;;;;4935315;29;19910;-43
2023/12/10 07:29:57;;;;;;;;;;;;;;;;;;4951452;29;19910;-42
2023/12/10 07:32:23;;;;;;;;;;;;;;;;;;4950498;29;19958;-41
2023/12/10 07:34:49;;;;;;;;;;;;;;;;;;4952037;29;19969;-42
2023/12/10 07:37:15;;;;;;;;;;;;;;;;;;4951763;29;19961;-42
2023/12/10 07:39:41;;;;;;;;;;;;;;;;;;4951737;29;19911;-42
2023/12/10 07:42:07;;;;;;;;;;;;;;;;;;4951555;29;19997;-41
2023/12/10 07:44:33;;;;;;;;;;;;;;;;;;4951820;29;19910;-40
2023/12/10 07:46:59;;;;;;;;;;;;;;;;;;4951993;28;19918;-41
2023/12/10 07:49:25;;;;;;;;;;;;;;;;;;4952288;29;20421;-42
2023/12/10 07:51:51;;;;;;;;;;;;;;;;;;4951787;29;20352;-41
2023/12/10 07:54:17;;;;;;;;;;;;;;;;;;4951700;29;20009;-41
2023/12/10 07:56:43;;;;;;;;;;;;;;;;;;4951590;29;20396;-41
2023/12/10 07:59:09;;;;;;;;;;;;;;;;;;4951380;29;20432;-41
2023/12/10 08:01:35;;;;;;;;;;;;;;;;;;4951007;29;19922;-41
2023/12/10 08:04:01;;;;;;;;;;;;;;;;;;4951312;29;19918;-40
2023/12/10 08:06:27;;;;;;;;;;;;;;;;;;4951882;29;19911;-41
2023/12/10 08:08:52;;;;;;;;;;;;;;;;;;4951145;29;19910;-42
2023/12/10 08:11:18;;;;;;;;;;;;;;;;;;4951462;29;19910;-41
2023/12/10 08:13:44;;;;;;;;;;;;;;;;;;4933764;29;20432;-41
2023/12/10 08:16:10;;;;;;;;;;;;;;;;;;4950807;29;20393;-41
2023/12/10 08:18:36;;;;;;;;;;;;;;;;;;4951088;29;19910;-40
2023/12/10 08:21:02;;;;;;;;;;;;;;;;;;4951290;29;20301;-41
2023/12/10 08:23:28;;;;;;;;;;;;;;;;;;4951442;29;19911;-40
2023/12/10 08:25:54;;;;;;;;;;;;;;;;;;4951027;29;19918;-41
2023/12/10 08:28:20;;;;;;;;;;;;;;;;;;4950839;29;20342;-40
2023/12/10 08:30:46;;;;;;;;;;;;;;;;;;4950981;29;19911;-41
2023/12/10 08:33:12;;;;;;;;;;;;;;;;;;4950703;29;19934;-40
2023/12/10 08:35:38;;;;;;;;;;;;;;;;;;4950931;29;19917;-42
2023/12/10 08:38:04;;;;;;;;;;;;;;;;;;4950434;29;19910;-41
2023/12/10 08:40:30;;;;;;;;;;;;;;;;;;4951411;29;19922;-41
2023/12/10 08:42:56;;;;;;;;;;;;;;;;;;4950619;29;20325;-42
2023/12/10 08:45:21;;;;;;;;;;;;;;;;;;4950665;29;19911;-41
2023/12/10 08:47:47;;;;;;;;;;;;;;;;;;4950392;29;20028;-41
2023/12/10 08:50:13;;;;;;;;;;;;;;;;;;4950709;29;19911;-46
2023/12/10 08:52:39;;;;;;;;;;;;;;;;;;4950133;29;19918;-43
2023/12/10 08:55:05;;;;;;;;;;;;;;;;;;4950418;29;19950;-43
2023/12/10 08:57:31;;;;;;;;;;;;;;;;;;4944262;29;20095;-43
2023/12/10 09:00:00;;;;;;;;;;;;;;;;;;4931214;29;19915;-43
2023/12/10 09:02:26;;;;;;;;;;;;;;;;;;4932092;29;19919;-43
2023/12/10 09:04:52;;;;;;;;;;;;;;;;;;4932329;29;19994;-43
2023/12/10 09:07:17;;;;;;;;;;;;;;;;;;4934891;29;20279;-43
2023/12/10 09:09:43;;;;;;;;;;;;;;;;;;4931632;29;19915;-44
2023/12/10 09:12:09;;;;;;;;;;;;;;;;;;4931804;29;19918;-44
2023/12/10 09:14:36;;;;;;;;;;;;;;;;;;4932308;29;19969;-43
2023/12/10 09:17:02;;;;;;;;;;;;;;;;;;4932469;29;19975;-44
2023/12/10 09:19:29;;;;;;;;;;;;;;;;;;4931961;29;20005;-43
2023/12/10 09:21:55;;;;;;;;;;;;;;;;;;4931860;29;20397;-44
2023/12/10 09:24:22;;;;;;;;;;;;;;;;;;4929826;29;20378;-44
2023/12/10 09:26:48;;;;;;;;;;;;;;;;;;4932074;29;19981;-44
2023/12/10 09:29:14;;;;;;;;;;;;;;;;;;4931337;29;19911;-43
2023/12/10 09:31:39;;;;;;;;;;;;;;;;;;4932287;29;20382;-43
2023/12/10 09:34:05;;;;;;;;;;;;;;;;;;4931651;29;19963;-42
2023/12/10 09:36:31;;;;;;;;;;;;;;;;;;4930833;29;19915;-42
2023/12/10 09:38:57;;;;;;;;;;;;;;;;;;4931324;29;19934;-41
2023/12/10 09:41:23;;;;;;;;;;;;;;;;;;4929188;29;19926;-42
2023/12/10 09:43:49;;;;;;;;;;;;;;;;;;4931606;29;19918;-41
2023/12/10 09:46:15;;;;;;;;;;;;;;;;;;4931923;29;19911;-42
2023/12/10 09:48:41;;;;;;;;;;;;;;;;;;4931498;29;19922;-43
2023/12/10 09:51:07;;;;;;;;;;;;;;;;;;4931726;29;19914;-42
2023/12/10 09:53:33;;;;;;;;;;;;;;;;;;4931007;29;19919;-43
2023/12/10 09:55:59;;;;;;;;;;;;;;;;;;4931807;29;20606;-42
2023/12/10 09:58:25;;;;;;;;;;;;;;;;;;4931718;29;19918;-41
2023/12/10 10:00:51;;;;;;;;;;;;;;;;;;4930760;29;20388;-41
2023/12/10 10:03:19;;;;;;;;;;;;;;;;;;4931566;29;19914;-41
2023/12/10 10:05:45;;;;;;;;;;;;;;;;;;4931597;29;19915;-41
2023/12/10 10:08:11;;;;;;;;;;;;;;;;;;4932007;29;20290;-41
2023/12/10 10:10:37;;;;;;;;;;;;;;;;;;4931169;29;19914;-42
2023/12/10 10:13:03;;;;;;;;;;;;;;;;;;4935358;29;19954;-41
2023/12/10 10:15:28;;;;;;;;;;;;;;;;;;4931552;29;19966;-44
2023/12/10 10:17:55;;;;;;;;;;;;;;;;;;4935922;29;19919;-42
2023/12/10 10:20:21;;;;;;;;;;;;;;;;;;4937598;29;19915;-42
2023/12/10 10:22:48;;;;;;;;;;;;;;;;;;4935446;29;19961;-42
2023/12/10 10:25:14;;;;;;;;;;;;;;;;;;4925294;29;20135;-41
2023/12/10 10:27:40;;;;;;;;;;;;;;;;;;4934886;29;20039;-42
2023/12/10 10:30:06;;;;;;;;;;;;;;;;;;4936106;29;20278;-42
2023/12/10 10:32:32;;;;;;;;;;;;;;;;;;4936039;29;20002;-44
2023/12/10 10:34:58;;;;;;;;;;;;;;;;;;4935821;29;20310;-44
2023/12/10 10:37:24;;;;;;;;;;;;;;;;;;4935664;29;19918;-44
2023/12/10 10:39:50;;;;;;;;;;;;;;;;;;4935396;29;19946;-44
2023/12/10 10:42:16;;;;;;;;;;;;;;;;;;4936232;29;19997;-45
2023/12/10 10:44:41;;;;;;;;;;;;;;;;;;4935900;29;19921;-44
2023/12/10 10:47:07;;;;;;;;;;;;;;;;;;4928261;29;19918;-44
2023/12/10 10:49:34;;;;;;;;;;;;;;;;;;4932932;29;20681;-44
2023/12/10 10:52:00;;;;;;;;;;;;;;;;;;4935605;29;19953;-45
2023/12/10 10:54:26;;;;;;;;;;;;;;;;;;4935442;29;20337;-44
2023/12/10 10:56:51;;;;;;;;;;;;;;;;;;4934538;29;20002;-47
2023/12/10 10:59:17;;;;;;;;;;;;;;;;;;4934420;29;20297;-45
2023/12/10 11:01:44;;;;;;;;;;;;;;;;;;4934794;29;19919;-44
2023/12/10 11:04:10;;;;;;;;;;;;;;;;;;4934693;29;19919;-45
2023/12/10 11:06:36;;;;;;;;;;;;;;;;;;4935660;29;19918;-44
2023/12/10 11:09:02;;;;;;;;;;;;;;;;;;4935033;29;19926;-44
2023/12/10 11:11:28;;;;;;;;;;;;;;;;;;4935222;29;19914;-42
2023/12/10 11:13:54;;;;;;;;;;;;;;;;;;4933558;29;20002;-43
2023/12/10 11:16:21;;;;;;;;;;;;;;;;;;4933784;29;20386;-43
2023/12/10 11:18:47;;;;;;;;;;;;;;;;;;4934461;29;20390;-41
2023/12/10 11:21:13;;;;;;;;;;;;;;;;;;4933865;29;19922;-44
2023/12/10 11:23:39;;;;;;;;;;;;;;;;;;4928574;29;19911;-42
2023/12/10 11:26:05;;;;;;;;;;;;;;;;;;4929818;29;20402;-42
2023/12/10 11:28:31;;;;;;;;;;;;;;;;;;4930393;29;19973;-45
2023/12/10 11:30:56;;;;;;;;;;;;;;;;;;4933798;29;19921;-42
2023/12/10 11:33:22;;;;;;;;;;;;;;;;;;4934556;29;19917;-43
2023/12/10 11:35:48;;;;;;;;;;;;;;;;;;4933560;29;19918;-43
2023/12/10 11:38:15;;;;;;;;;;;;;;;;;;4931885;29;19914;-44
2023/12/10 11:40:41;;;;;;;;;;;;;;;;;;4933868;29;20014;-43
2023/12/10 11:43:07;;;;;;;;;;;;;;;;;;4932726;29;20317;-43
2023/12/10 11:45:33;;;;;;;;;;;;;;;;;;4933749;29;19911;-42
2023/12/10 11:48:00;;;;;;;;;;;;;;;;;;4932744;29;19942;-45
2023/12/10 11:50:25;;;;;;;;;;;;;;;;;;4933935;29;19918;-42
2023/12/10 11:52:51;;;;;;;;;;;;;;;;;;4926596;29;19915;-45
2023/12/10 11:55:17;;;;;;;;;;;;;;;;;;4933328;29;20302;-43
2023/12/10 11:57:43;;;;;;;;;;;;;;;;;;4933451;29;19926;-46
2023/12/10 12:00:09;;;;;;;;;;;;;;;;;;4933156;29;19918;-42
2023/12/10 12:02:35;;;;;;;;;;;;;;;;;;4933355;29;19985;-42
2023/12/10 12:05:01;;;;;;;;;;;;;;;;;;4932580;29;19930;-46
2023/12/10 12:07:27;;;;;;;;;;;;;;;;;;4933358;29;19915;-44
2023/12/10 12:09:53;;;;;;;;;;;;;;;;;;4933845;29;19942;-44
2023/12/10 12:12:20;;;;;;;;;;;;;;;;;;4917684;29;19922;-44
2023/12/10 12:14:46;;;;;;;;;;;;;;;;;;4929442;29;19922;-44
2023/12/10 12:17:12;;;;;;;;;;;;;;;;;;4932617;29;20385;-44
2023/12/10 12:19:38;;;;;;;;;;;;;;;;;;4931149;29;19915;-44
2023/12/10 12:22:04;;;;;;;;;;;;;;;;;;4931905;29;19915;-43
2023/12/10 12:24:30;;;;;;;;;;;;;;;;;;4932068;29;20044;-41
2023/12/10 12:26:56;;;;;;;;;;;;;;;;;;4932509;29;20282;-41
2023/12/10 12:29:22;;;;;;;;;;;;;;;;;;4931688;29;19911;-41
2023/12/10 12:31:48;;;;;;;;;;;;;;;;;;4931818;29;20311;-41
2023/12/10 12:34:14;;;;;;;;;;;;;;;;;;4930267;29;19911;-41
2023/12/10 12:36:40;;;;;;;;;;;;;;;;;;4931829;29;20418;-41
2023/12/10 12:39:06;;;;;;;;;;;;;;;;;;4931072;29;19911;-40
2023/12/10 12:41:32;;;;;;;;;;;;;;;;;;4931493;29;20051;-41
2023/12/10 12:43:58;;;;;;;;;;;;;;;;;;4931439;29;20435;-41
2023/12/10 12:46:24;;;;;;;;;;;;;;;;;;4931831;29;19914;-41
2023/12/10 12:48:50;;;;;;;;;;;;;;;;;;4931184;29;19974;-41
2023/12/10 12:51:16;;;;;;;;;;;;;;;;;;4931006;29;19911;-41
2023/12/10 12:53:42;;;;;;;;;;;;;;;;;;4931478;29;19922;-41
2023/12/10 12:56:08;;;;;;;;;;;;;;;;;;4931072;29;19922;-41
2023/12/10 12:58:34;;;;;;;;;;;;;;;;;;4931113;29;20298;-41
2023/12/10 13:01:00;;;;;;;;;;;;;;;;;;4931370;29;19926;-41
2023/12/10 13:03:26;;;;;;;;;;;;;;;;;;4931553;29;19952;-41
2023/12/10 13:05:51;;;;;;;;;;;;;;;;;;4931199;29;19961;-41
2023/12/10 13:08:17;;;;;;;;;;;;;;;;;;4931073;29;19911;-41
2023/12/10 13:10:43;;;;;;;;;;;;;;;;;;4931263;29;19911;-41
2023/12/10 13:13:09;;;;;;;;;;;;;;;;;;4930961;29;19918;-41
2023/12/10 13:15:35;;;;;;;;;;;;;;;;;;4931057;29;20337;-41
2023/12/10 13:18:01;;;;;;;;;;;;;;;;;;4930612;29;19973;-41
2023/12/10 13:20:27;;;;;;;;;;;;;;;;;;4925048;29;20005;-44
2023/12/10 13:22:53;;;;;;;;;;;;;;;;;;4926397;29;20005;-46
2023/12/10 13:25:19;;;;;;;;;;;;;;;;;;4928098;29;19927;-45
2023/12/10 13:27:45;;;;;;;;;;;;;;;;;;4928549;29;19973;-46
2023/12/10 13:30:11;;;;;;;;;;;;;;;;;;4926190;29;19914;-45
2023/12/10 13:32:37;;;;;;;;;;;;;;;;;;4925317;29;19958;-47
2023/12/10 13:35:03;;;;;;;;;;;;;;;;;;4927598;29;19914;-48
2023/12/10 13:37:30;;;;;;;;;;;;;;;;;;4929052;29;20301;-44
2023/12/10 13:39:56;;;;;;;;;;;;;;;;;;4930007;29;19919;-44
2023/12/10 13:42:21;;;;;;;;;;;;;;;;;;4924697;29;20452;-43
2023/12/10 13:44:47;;;;;;;;;;;;;;;;;;4937234;29;20390;-47
2023/12/10 13:47:14;;;;;;;;;;;;;;;;;;4922725;29;19911;-45
2023/12/10 13:49:40;;;;;;;;;;;;;;;;;;4929536;29;20370;-44
2023/12/10 13:52:06;;;;;;;;;;;;;;;;;;4926248;29;19970;-47
2023/12/10 13:54:32;;;;;;;;;;;;;;;;;;4913060;29;19915;-46
2023/12/10 13:56:58;;;;;;;;;;;;;;;;;;4929337;29;19915;-44
2023/12/10 13:59:23;;;;;;;;;;;;;;;;;;4929080;29;20279;-45
2023/12/10 14:01:49;;;;;;;;;;;;;;;;;;4928273;29;19918;-47
2023/12/10 14:04:15;;;;;;;;;;;;;;;;;;4912446;29;19921;-46
2023/12/10 14:06:41;;;;;;;;;;;;;;;;;;4927596;29;19919;-47
2023/12/10 14:09:09;;;;;;;;;;;;;;;;;;4929016;29;19981;-47
2023/12/10 14:11:35;;;;;;;;;;;;;;;;;;4911126;29;19923;-44
2023/12/10 14:14:03;;;;;;;;;;;;;;;;;;4932052;29;20480;-46
2023/12/10 14:16:29;;;;;;;;;;;;;;;;;;4929951;29;20317;-45
2023/12/10 14:18:55;;;;;;;;;;;;;;;;;;4930431;29;19911;-44
2023/12/10 14:21:21;;;;;;;;;;;;;;;;;;4927262;29;19930;-47
2023/12/10 14:23:47;;;;;;;;;;;;;;;;;;4931470;29;19926;-47
2023/12/10 14:26:13;;;;;;;;;;;;;;;;;;4909647;29;19915;-46
2023/12/10 14:28:39;;;;;;;;;;;;;;;;;;4927183;29;19922;-44
2023/12/10 14:31:04;;;;;;;;;;;;;;;;;;4927194;29;19978;-46
2023/12/10 14:33:30;;;;;;;;;;;;;;;;;;4927935;29;19985;-46
2023/12/10 14:35:56;;;;;;;;;;;;;;;;;;4928939;29;19962;-47
2023/12/10 14:38:22;;;;;;;;;;;;;;;;;;4923817;29;19923;-46
2023/12/10 14:40:48;;;;;;;;;;;;;;;;;;4926740;29;19974;-43
2023/12/10 14:43:14;;;;;;;;;;;;;;;;;;4928156;29;19972;-46
2023/12/10 14:45:40;;;;;;;;;;;;;;;;;;4922238;29;19919;-44
2023/12/10 14:48:06;;;;;;;;;;;;;;;;;;4926066;29;19922;-46
2023/12/10 14:50:32;;;;;;;;;;;;;;;;;;4926762;29;19970;-46
2023/12/10 14:52:58;;;;;;;;;;;;;;;;;;4925531;29;20499;-44
2023/12/10 14:55:23;;;;;;;;;;;;;;;;;;4925993;29;19919;-45
2023/12/10 14:57:49;;;;;;;;;;;;;;;;;;4928290;29;19915;-44
2023/12/10 15:00:17;;;;;;;;;;;;;;;;;;4929888;29;19919;-46
2023/12/10 15:02:43;;;;;;;;;;;;;;;;;;4936791;29;20391;-44
2023/12/10 15:05:09;;;;;;;;;;;;;;;;;;4936075;29;19943;-45
2023/12/10 15:07:41;;;;;;;;;;;;;;;;;;4933415;29;20013;-45
2023/12/10 15:10:07;;;;;;;;;;;;;;;;;;4930451;29;20321;-46
2023/12/10 15:12:33;;;;;;;;;;;;;;;;;;4931196;29;19915;-47
2023/12/10 15:14:59;;;;;;;;;;;;;;;;;;4931509;29;19915;-46
2023/12/10 15:17:25;;;;;;;;;;;;;;;;;;4940218;29;20396;-47
2023/12/10 15:19:51;;;;;;;;;;;;;;;;;;4938259;29;20010;-45
2023/12/10 15:22:17;;;;;;;;;;;;;;;;;;4914933;29;19919;-45
2023/12/10 15:24:43;;;;;;;;;;;;;;;;;;4930257;29;20556;-46
2023/12/10 15:27:09;;;;;;;;;;;;;;;;;;4931211;29;19914;-46
2023/12/10 15:29:35;;;;;;;;;;;;;;;;;;4947707;29;19978;-46
2023/12/10 15:32:01;;;;;;;;;;;;;;;;;;4927900;29;19957;-45
2023/12/10 15:34:29;;;;;;;;;;;;;;;;;;4913297;29;20418;-47
2023/12/10 15:36:55;;;;;;;;;;;;;;;;;;4936108;29;19970;-44
2023/12/10 15:39:21;;;;;;;;;;;;;;;;;;4932553;29;19914;-46
2023/12/10 15:41:47;;;;;;;;;;;;;;;;;;4929297;29;20047;-47
2023/12/10 15:44:12;;;;;;;;;;;;;;;;;;4924734;29;19997;-45
2023/12/10 15:46:38;;;;;;;;;;;;;;;;;;4942836;29;19915;-45
2023/12/10 15:49:04;;;;;;;;;;;;;;;;;;4932489;29;19970;-45
2023/12/10 15:51:30;;;;;;;;;;;;;;;;;;4932157;29;20449;-44
2023/12/10 15:53:56;;;;;;;;;;;;;;;;;;4935188;29;19914;-43
2023/12/10 15:56:22;;;;;;;;;;;;;;;;;;4940079;29;19919;-45
2023/12/10 15:58:48;;;;;;;;;;;;;;;;;;4929145;29;19957;-45
2023/12/10 16:01:14;;;;;;;;;;;;;;;;;;4935449;29;19926;-44
2023/12/10 16:03:40;;;;;;;;;;;;;;;;;;4946951;29;19914;-44
2023/12/10 16:06:05;;;;;;;;;;;;;;;;;;4940428;29;19915;-46
2023/12/10 16:08:31;;;;;;;;;;;;;;;;;;4934255;29;19939;-46
2023/12/10 16:10:57;;;;;;;;;;;;;;;;;;4932044;29;19922;-45
2023/12/10 16:13:23;;;;;;;;;;;;;;;;;;4932760;29;19914;-42
2023/12/10 16:15:49;;;;;;;;;;;;;;;;;;4915432;29;19998;-46
2023/12/10 16:18:15;;;;;;;;;;;;;;;;;;4914844;29;19969;-45
2023/12/10 16:20:41;;;;;;;;;;;;;;;;;;4929592;29;20362;-43
2023/12/10 16:23:07;;;;;;;;;;;;;;;;;;4927884;29;19922;-46
2023/12/10 16:25:33;;;;;;;;;;;;;;;;;;4921490;29;19910;-45
2023/12/10 16:27:59;;;;;;;;;;;;;;;;;;4944740;29;20367;-44
2023/12/10 16:30:25;;;;;;;;;;;;;;;;;;4914754;29;19925;-44
2023/12/10 16:32:51;;;;;;;;;;;;;;;;;;4917071;29;19926;-42
2023/12/10 16:35:16;;;;;;;;;;;;;;;;;;4927717;29;19923;-43
2023/12/10 16:37:42;;;;;;;;;;;;;;;;;;4929675;29;19919;-44
2023/12/10 16:40:08;;;;;;;;;;;;;;;;;;4913109;29;19915;-42
2023/12/10 16:42:34;;;;;;;;;;;;;;;;;;4931168;29;19918;-46
2023/12/10 16:45:01;;;;;;;;;;;;;;;;;;4930195;29;19918;-46
2023/12/10 16:47:27;;;;;;;;;;;;;;;;;;4930155;29;19969;-42
2023/12/10 16:49:53;;;;;;;;;;;;;;;;;;4929833;29;20430;-46
2023/12/10 16:52:19;;;;;;;;;;;;;;;;;;4927820;29;20010;-45
2023/12/10 16:54:44;;;;;;;;;;;;;;;;;;4930515;29;19925;-45
2023/12/10 16:57:10;;;;;;;;;;;;;;;;;;4929919;29;19939;-44
2023/12/10 16:59:38;;;;;;;;;;;;;;;;;;4930518;29;19930;-42
2023/12/10 17:02:04;;;;;;;;;;;;;;;;;;4928933;29;19929;-44
2023/12/10 17:04:30;;;;;;;;;;;;;;;;;;4929934;29;19915;-44
2023/12/10 17:06:56;;;;;;;;;;;;;;;;;;4940169;29;19914;-42
2023/12/10 17:09:22;;;;;;;;;;;;;;;;;;4927378;29;19969;-46
2023/12/10 17:11:52;;;;;;;;;;;;;;;;;;4912858;29;19947;-45
2023/12/10 17:14:18;;;;;;;;;;;;;;;;;;4926993;29;19933;-44
2023/12/10 17:16:44;;;;;;;;;;;;;;;;;;4928344;29;19918;-44
2023/12/10 17:19:10;;;;;;;;;;;;;;;;;;4924280;29;19930;-44
2023/12/10 17:21:36;;;;;;;;;;;;;;;;;;4940978;29;19918;-45
2023/12/10 17:24:02;;;;;;;;;;;;;;;;;;4927418;29;19915;-44
2023/12/10 17:26:28;;;;;;;;;;;;;;;;;;4933229;29;19987;-47
2023/12/10 17:28:54;;;;;;;;;;;;;;;;;;4908641;29;19946;-46
2023/12/10 17:31:19;;;;;;;;;;;;;;;;;;4936728;29;19914;-46
2023/12/10 17:33:46;;;;;;;;;;;;;;;;;;4935781;29;19915;-48
2023/12/10 17:36:12;;;;;;;;;;;;;;;;;;4939594;29;19961;-47
2023/12/10 17:38:38;;;;;;;;;;;;;;;;;;4928410;29;20433;-46
2023/12/10 17:41:04;;;;;;;;;;;;;;;;;;4927792;29;20303;-44
2023/12/10 17:43:30;;;;;;;;;;;;;;;;;;4926547;29;19969;-48
2023/12/10 17:45:56;;;;;;;;;;;;;;;;;;4927212;29;19958;-45
2023/12/10 17:48:22;;;;;;;;;;;;;;;;;;4909834;29;19915;-45
2023/12/10 17:50:48;;;;;;;;;;;;;;;;;;4926787;29;19919;-44
2023/12/10 17:53:14;;;;;;;;;;;;;;;;;;4928190;29;19947;-45
2023/12/10 17:55:40;;;;;;;;;;;;;;;;;;4912724;29;20490;-47
2023/12/10 17:58:05;;;;;;;;;;;;;;;;;;4908900;29;20013;-46
2023/12/10 18:00:31;;;;;;;;;;;;;;;;;;4924365;29;19982;-45
2023/12/10 18:02:57;;;;;;;;;;;;;;;;;;4924013;29;19934;-48
2023/12/10 18:05:23;;;;;;;;;;;;;;;;;;4925163;29;19919;-46
2023/12/10 18:07:49;;;;;;;;;;;;;;;;;;4927063;29;19942;-46
2023/12/10 18:10:15;;;;;;;;;;;;;;;;;;4927384;29;19926;-48
2023/12/10 18:12:41;;;;;;;;;;;;;;;;;;4927744;29;20077;-46
2023/12/10 18:15:08;;;;;;;;;;;;;;;;;;4928657;29;19919;-45
2023/12/10 18:17:34;;;;;;;;;;;;;;;;;;4925698;29;19922;-46
2023/12/10 18:20:00;;;;;;;;;;;;;;;;;;4925647;29;19962;-46
2023/12/10 18:22:26;;;;;;;;;;;;;;;;;;4925078;29;20346;-46
2023/12/10 18:24:53;;;;;;;;;;;;;;;;;;4925801;29;19921;-44
2023/12/10 18:27:18;;;;;;;;;;;;;;;;;;4925516;29;20396;-45
2023/12/10 18:29:44;;;;;;;;;;;;;;;;;;4925666;29;20010;-46
2023/12/10 18:32:10;;;;;;;;;;;;;;;;;;4932015;29;19915;-46
2023/12/10 18:34:36;;;;;;;;;;;;;;;;;;4940081;29;19943;-46
2023/12/10 18:37:03;;;;;;;;;;;;;;;;;;4929767;29;19915;-47
2023/12/10 18:39:29;;;;;;;;;;;;;;;;;;4927466;29;20002;-45
2023/12/10 18:41:55;;;;;;;;;;;;;;;;;;4930599;29;20405;-44
2023/12/10 18:44:22;;;;;;;;;;;;;;;;;;4928651;29;19922;-44
2023/12/10 18:46:48;;;;;;;;;;;;;;;;;;4925983;29;19915;-45
2023/12/10 18:49:14;;;;;;;;;;;;;;;;;;4933149;29;19919;-45
2023/12/10 18:51:40;;;;;;;;;;;;;;;;;;4931923;29;19919;-45
2023/12/10 18:54:08;;;;;;;;;;;;;;;;;;4932802;29;19921;-45
2023/12/10 18:56:34;;;;;;;;;;;;;;;;;;4912180;29;19933;-46
2023/12/10 18:59:00;;;;;;;;;;;;;;;;;;4930747;29;19915;-49
2023/12/10 19:01:26;;;;;;;;;;;;;;;;;;4927697;29;20496;-45
2023/12/10 19:03:52;;;;;;;;;;;;;;;;;;4927222;29;19970;-45
2023/12/10 19:06:18;;;;;;;;;;;;;;;;;;4933146;29;19918;-45
2023/12/10 19:08:44;;;;;;;;;;;;;;;;;;4926699;29;19919;-45
2023/12/10 19:11:09;;;;;;;;;;;;;;;;;;4928289;29;19919;-47
2023/12/10 19:13:35;;;;;;;;;;;;;;;;;;4928712;29;19922;-45
2023/12/10 19:16:02;;;;;;;;;;;;;;;;;;4930391;29;20298;-47
2023/12/10 19:18:28;;;;;;;;;;;;;;;;;;4931741;29;19915;-46
2023/12/10 19:20:53;;;;;;;;;;;;;;;;;;4930407;29;19925;-44
2023/12/10 19:23:19;;;;;;;;;;;;;;;;;;4919006;29;20394;-45
2023/12/10 19:25:45;;;;;;;;;;;;;;;;;;4927996;29;20037;-45
2023/12/10 19:28:11;;;;;;;;;;;;;;;;;;4925059;29;20558;-48
2023/12/10 19:30:37;;;;;;;;;;;;;;;;;;4929383;29;20278;-47
2023/12/10 19:33:04;;;;;;;;;;;;;;;;;;4935586;29;19914;-46
2023/12/10 19:35:30;;;;;;;;;;;;;;;;;;4929364;29;20279;-44
2023/12/10 19:37:56;;;;;;;;;;;;;;;;;;4925524;29;20016;-45
2023/12/10 19:40:23;;;;;;;;;;;;;;;;;;4933355;29;19950;-44
2023/12/10 19:42:49;;;;;;;;;;;;;;;;;;4942646;28;19926;-44
2023/12/10 19:45:15;;;;;;;;;;;;;;;;;;4941581;29;19911;-47
2023/12/10 19:47:41;;;;;;;;;;;;;;;;;;4933161;29;20361;-45
2023/12/10 19:50:08;;;;;;;;;;;;;;;;;;4929719;29;19966;-47
2023/12/10 19:52:34;;;;;;;;;;;;;;;;;;4929348;29;19921;-47
2023/12/10 19:55:02;;;;;;;;;;;;;;;;;;4930423;29;20321;-44
2023/12/10 19:57:28;;;;;;;;;;;;;;;;;;4927474;29;19915;-45
2023/12/10 19:59:54;;;;;;;;;;;;;;;;;;4932522;29;19929;-45
2023/12/10 20:02:20;;;;;;;;;;;;;;;;;;4937154;29;19918;-47
2023/12/10 20:04:46;;;;;;;;;;;;;;;;;;4937521;29;19919;-48
2023/12/10 20:07:12;;;;;;;;;;;;;;;;;;4934291;29;20447;-47
2023/12/10 20:09:38;;;;;;;;;;;;;;;;;;4935890;29;19915;-47
2023/12/10 20:12:04;;;;;;;;;;;;;;;;;;4928328;29;20124;-45
2023/12/10 20:14:30;;;;;;;;;;;;;;;;;;4913078;29;19911;-45
2023/12/10 20:16:56;;;;;;;;;;;;;;;;;;4929745;29;19915;-45
2023/12/10 20:19:22;;;;;;;;;;;;;;;;;;4939573;29;19923;-49
2023/12/10 20:21:48;;;;;;;;;;;;;;;;;;4928543;29;19978;-46
2023/12/10 20:24:15;;;;;;;;;;;;;;;;;;4927580;29;19934;-46
2023/12/10 20:26:41;;;;;;;;;;;;;;;;;;4928246;29;19915;-45
2023/12/10 20:29:07;;;;;;;;;;;;;;;;;;4936584;29;19918;-50
2023/12/10 20:31:33;;;;;;;;;;;;;;;;;;4925911;29;19923;-50
2023/12/10 20:34:01;;;;;;;;;;;;;;;;;;4936087;29;19915;-48
2023/12/10 20:36:27;;;;;;;;;;;;;;;;;;4928024;29;19914;-47
2023/12/10 20:38:53;;;;;;;;;;;;;;;;;;4929527;29;19921;-48
2023/12/10 20:41:18;;;;;;;;;;;;;;;;;;4932469;29;20283;-49
2023/12/10 20:43:44;;;;;;;;;;;;;;;;;;4925553;29;19933;-45
2023/12/10 20:46:10;;;;;;;;;;;;;;;;;;4934216;29;19921;-46
2023/12/10 20:48:36;;;;;;;;;;;;;;;;;;4918026;29;20452;-47
2023/12/10 20:51:02;;;;;;;;;;;;;;;;;;4928206;29;20013;-48
2023/12/10 20:53:28;;;;;;;;;;;;;;;;;;4927706;29;20021;-45
2023/12/10 20:55:54;;;;;;;;;;;;;;;;;;4925474;29;20230;-48
2023/12/10 20:58:20;;;;;;;;;;;;;;;;;;4928504;29;20017;-47
2023/12/10 21:00:46;;;;;;;;;;;;;;;;;;4916333;29;20013;-49
2023/12/10 21:03:18;;;;;;;;;;;;;;;;;;4927838;29;19954;-48
2023/12/10 21:05:44;;;;;;;;;;;;;;;;;;4928727;29;19997;-45
2023/12/10 21:08:10;;;;;;;;;;;;;;;;;;4927249;29;19970;-45
2023/12/10 21:10:35;;;;;;;;;;;;;;;;;;4926558;29;19973;-47
2023/12/10 21:13:02;;;;;;;;;;;;;;;;;;4928919;29;20630;-47
2023/12/10 21:15:28;;;;;;;;;;;;;;;;;;4936400;29;20403;-45
2023/12/10 21:17:54;;;;;;;;;;;;;;;;;;4928113;29;19962;-47
2023/12/10 21:20:19;;;;;;;;;;;;;;;;;;4910801;29;20375;-45
2023/12/10 21:22:45;;;;;;;;;;;;;;;;;;4927132;29;20203;-45
2023/12/10 21:25:11;;;;;;;;;;;;;;;;;;4930492;29;19938;-45
2023/12/10 21:27:37;;;;;;;;;;;;;;;;;;4932052;29;20321;-45
2023/12/10 21:30:03;;;;;;;;;;;;;;;;;;4931320;29;19921;-45
2023/12/10 21:32:29;;;;;;;;;;;;;;;;;;4940507;29;19921;-46
2023/12/10 21:34:55;;;;;;;;;;;;;;;;;;4928961;29;19918;-48
2023/12/10 21:37:21;;;;;;;;;;;;;;;;;;4931026;29;19911;-49
2023/12/10 21:39:47;;;;;;;;;;;;;;;;;;4928857;29;19919;-46
2023/12/10 21:42:13;;;;;;;;;;;;;;;;;;4932518;29;20019;-48
2023/12/10 21:44:39;;;;;;;;;;;;;;;;;;4945945;29;19997;-47
2023/12/10 21:47:05;;;;;;;;;;;;;;;;;;4930290;29;19923;-45
2023/12/10 21:49:30;;;;;;;;;;;;;;;;;;4930896;29;19938;-48
2023/12/10 21:51:56;;;;;;;;;;;;;;;;;;4930808;29;20741;-45
2023/12/10 21:54:25;;;;;;;;;;;;;;;;;;4928756;29;19914;-49
2023/12/10 21:56:52;;;;;;;;;;;;;;;;;;4929936;29;20493;-47
2023/12/10 21:59:18;;;;;;;;;;;;;;;;;;4929036;29;19954;-49
2023/12/10 22:01:44;;;;;;;;;;;;;;;;;;4933109;29;19961;-46
2023/12/10 22:04:10;;;;;;;;;;;;;;;;;;4934522;29;20001;-49
2023/12/10 22:06:36;;;;;;;;;;;;;;;;;;4930072;29;19922;-48
2023/12/10 22:09:02;;;;;;;;;;;;;;;;;;4939993;29;20306;-50
2023/12/10 22:11:28;;;;;;;;;;;;;;;;;;4932045;29;19922;-49
2023/12/10 22:13:55;;;;;;;;;;;;;;;;;;4917989;29;20001;-50
2023/12/10 22:16:21;;;;;;;;;;;;;;;;;;4916987;29;20049;-50
2023/12/10 22:18:48;;;;;;;;;;;;;;;;;;4933460;29;20013;-48
2023/12/10 22:21:14;;;;;;;;;;;;;;;;;;4926579;29;20504;-46
2023/12/10 22:23:40;;;;;;;;;;;;;;;;;;4935671;29;19922;-47
2023/12/10 22:26:06;;;;;;;;;;;;;;;;;;4933197;29;19970;-47
2023/12/10 22:28:32;;;;;;;;;;;;;;;;;;4932009;29;20335;-45
2023/12/10 22:30:58;;;;;;;;;;;;;;;;;;4938009;29;19922;-49
2023/12/10 22:33:24;;;;;;;;;;;;;;;;;;4933292;29;19994;-49
2023/12/10 22:35:50;;;;;;;;;;;;;;;;;;4933550;29;20005;-50
2023/12/10 22:38:15;;;;;;;;;;;;;;;;;;4934009;29;19918;-48